createdAt,value
2023-05-24T00:02:23.943Z,4.70
2023-05-24T00:04:53.029Z,4.07
2023-05-24T00:07:20.294Z,4.03
2023-05-24T00:09:47.253Z,4.68
2023-05-24T00:12:14.174Z,4.10
2023-05-24T00:14:41.073Z,4.28
2023-05-24T00:17:07.987Z,4.68
2023-05-24T00:19:38.486Z,4.10
2023-05-24T00:22:05.643Z,3.88
2023-05-24T00:24:32.620Z,4.05
2023-05-24T00:26:59.490Z,4.55
2023-05-24T00:29:26.358Z,4.25
2023-05-24T00:31:53.284Z,4.47
2023-05-24T00:34:20.442Z,4.60
2023-05-24T00:36:47.347Z,4.40
2023-05-24T00:39:14.231Z,4.68
2023-05-24T00:41:41.146Z,5.63
2023-05-24T00:44:11.006Z,4.95
2023-05-24T00:46:38.381Z,4.63
2023-05-24T00:49:05.567Z,4.47
2023-05-24T00:51:33.980Z,4.57
2023-05-24T00:54:01.330Z,4.72
2023-05-24T00:56:28.686Z,5.28
2023-05-24T00:58:56.411Z,4.65
2023-05-24T01:01:26.707Z,5.00
2023-05-24T01:03:54.508Z,5.20
2023-05-24T01:06:23.584Z,5.07
2023-05-24T01:09:11.993Z,5.43
2023-05-24T01:12:17.030Z,5.00
2023-05-24T01:15:21.451Z,4.70
2023-05-24T01:18:01.774Z,4.63
2023-05-24T01:20:34.369Z,5.13
2023-05-24T01:23:14.885Z,5.57
2023-05-24T01:25:51.058Z,4.82
2023-05-24T01:28:18.797Z,4.60
2023-05-24T01:30:46.547Z,4.53
2023-05-24T01:33:13.855Z,4.53
2023-05-24T01:35:42.346Z,4.75
2023-05-24T01:38:12.821Z,5.05
2023-05-24T01:40:41.296Z,5.15
2023-05-24T01:43:33.859Z,4.85
2023-05-24T01:46:06.840Z,5.13
2023-05-24T01:49:21.425Z,5.32
2023-05-24T01:52:01.676Z,4.90
2023-05-24T01:54:34.080Z,5.65
2023-05-24T01:57:05.485Z,5.32
2023-05-24T01:59:33.936Z,5.80
2023-05-24T02:02:01.682Z,5.63
2023-05-24T02:04:28.752Z,5.40
2023-05-24T02:06:55.673Z,5.60
2023-05-24T02:09:22.589Z,5.60
2023-05-24T02:11:49.531Z,5.63
2023-05-24T02:14:17.478Z,6.07
2023-05-24T02:16:46.836Z,5.57
2023-05-24T02:19:14.576Z,6.55
2023-05-24T02:21:41.496Z,7.28
2023-05-24T02:24:11.348Z,6.13
2023-05-24T02:26:39.133Z,6.13
2023-05-24T02:29:06.186Z,6.35
2023-05-24T02:31:33.303Z,6.13
2023-05-24T02:34:00.355Z,6.38
2023-05-24T02:36:27.633Z,6.30
2023-05-24T02:38:54.558Z,5.85
2023-05-24T02:41:22.204Z,5.88
2023-05-24T02:43:49.151Z,5.97
2023-05-24T02:46:17.096Z,6.18
2023-05-24T02:48:44.042Z,5.90
2023-05-24T02:51:10.906Z,6.35
2023-05-24T02:53:37.792Z,6.68
2023-05-24T02:56:04.769Z,5.70
2023-05-24T02:58:31.641Z,6.30
2023-05-24T03:00:58.630Z,6.32
2023-05-24T03:03:25.875Z,4.95
2023-05-24T03:05:52.816Z,6.80
2023-05-24T03:08:19.746Z,6.65
2023-05-24T03:10:46.608Z,6.25
2023-05-24T03:13:13.506Z,6.57
2023-05-24T03:15:40.881Z,7.53
2023-05-24T03:18:07.802Z,7.00
2023-05-24T03:20:34.779Z,7.70
2023-05-24T03:23:01.759Z,7.07
2023-05-24T03:25:28.723Z,8.10
2023-05-24T03:27:55.580Z,7.38
2023-05-24T03:30:22.506Z,7.53
2023-05-24T03:32:49.453Z,6.95
2023-05-24T03:35:16.309Z,7.00
2023-05-24T03:37:43.204Z,7.90
2023-05-24T03:40:11.100Z,7.63
2023-05-24T03:42:38.433Z,7.47
2023-05-24T03:45:06.118Z,6.93
2023-05-24T03:47:33.023Z,7.78
2023-05-24T03:49:59.918Z,7.22
2023-05-24T03:52:26.874Z,8.10
2023-05-24T03:54:53.764Z,7.93
2023-05-24T03:57:20.773Z,7.47
2023-05-24T03:59:47.827Z,7.80
2023-05-24T04:02:14.816Z,7.85
2023-05-24T04:04:42.168Z,8.88
2023-05-24T04:07:12.044Z,8.10
2023-05-24T04:09:38.970Z,8.35
2023-05-24T04:12:06.170Z,8.15
2023-05-24T04:14:33.026Z,7.72
2023-05-24T04:17:00.034Z,7.57
2023-05-24T04:19:27.000Z,8.18
2023-05-24T04:21:53.914Z,7.82
2023-05-24T04:24:20.824Z,8.10
2023-05-24T04:26:47.889Z,8.52
2023-05-24T04:29:15.021Z,8.13
2023-05-24T04:31:44.851Z,7.78
2023-05-24T04:34:14.316Z,8.23
2023-05-24T04:36:41.619Z,8.43
2023-05-24T04:39:08.494Z,8.73
2023-05-24T04:41:38.769Z,8.10
2023-05-24T04:44:05.756Z,8.70
2023-05-24T04:46:35.483Z,8.43
2023-05-24T04:49:02.636Z,7.60
2023-05-24T04:51:29.602Z,7.53
2023-05-24T04:53:56.590Z,7.97
2023-05-24T04:56:23.738Z,7.65
2023-05-24T04:58:51.115Z,7.05
2023-05-24T05:01:18.436Z,6.60
2023-05-24T05:03:46.111Z,7.13
2023-05-24T05:06:13.793Z,8.00
2023-05-24T05:08:40.681Z,7.55
2023-05-24T05:11:07.758Z,8.05
2023-05-24T05:13:34.684Z,7.65
2023-05-24T05:16:02.391Z,6.85
2023-05-24T05:18:29.435Z,6.60
2023-05-24T05:20:57.455Z,7.07
2023-05-24T05:23:24.350Z,6.85
2023-05-24T05:25:51.265Z,7.20
2023-05-24T05:28:18.166Z,6.78
2023-05-24T05:30:45.130Z,7.60
2023-05-24T05:33:12.206Z,7.35
2023-05-24T05:35:39.282Z,6.45
2023-05-24T05:38:06.176Z,6.93
2023-05-24T05:40:33.096Z,7.72
2023-05-24T05:43:00.135Z,7.30
2023-05-24T05:45:27.175Z,7.45
2023-05-24T05:47:54.261Z,7.05
2023-05-24T05:50:21.240Z,6.85
2023-05-24T05:52:48.136Z,6.50
2023-05-24T05:55:15.001Z,6.68
2023-05-24T05:57:41.977Z,6.78
2023-05-24T06:00:09.794Z,6.22
2023-05-24T06:02:36.768Z,6.78
2023-05-24T06:05:03.935Z,7.07
2023-05-24T06:07:31.171Z,5.88
2023-05-24T06:09:58.086Z,6.30
2023-05-24T06:12:24.988Z,6.75
2023-05-24T06:14:52.430Z,5.90
2023-05-24T06:17:19.341Z,5.43
2023-05-24T06:19:46.281Z,5.88
2023-05-24T06:22:13.186Z,5.85
2023-05-24T06:24:40.099Z,5.10
2023-05-24T06:27:07.011Z,5.35
2023-05-24T06:29:33.969Z,5.50
2023-05-24T06:32:01.108Z,5.50
2023-05-24T06:34:29.798Z,4.93
2023-05-24T06:36:56.742Z,4.70
2023-05-24T06:39:25.281Z,3.85
2023-05-24T06:41:52.297Z,3.88
2023-05-24T06:44:19.298Z,4.30
2023-05-24T06:46:46.548Z,4.20
2023-05-24T06:49:13.504Z,4.65
2023-05-24T06:51:40.594Z,4.07
2023-05-24T06:54:08.038Z,4.22
2023-05-24T06:56:35.209Z,4.35
2023-05-24T06:59:02.180Z,3.67
2023-05-24T07:01:29.899Z,3.47
2023-05-24T07:03:57.051Z,3.53
2023-05-24T07:06:25.185Z,4.07
2023-05-24T07:08:52.073Z,3.85
2023-05-24T07:11:19.123Z,3.35
2023-05-24T07:13:46.299Z,3.50
2023-05-24T07:16:13.192Z,3.53
2023-05-24T07:18:41.843Z,3.80
2023-05-24T07:21:09.065Z,3.35
2023-05-24T07:23:37.644Z,3.05
2023-05-24T07:26:05.612Z,3.13
2023-05-24T07:28:33.076Z,3.22
2023-05-24T07:31:00.003Z,2.67
2023-05-24T07:33:26.987Z,2.63
2023-05-24T07:35:53.908Z,2.38
2023-05-24T07:38:21.225Z,2.97
2023-05-24T07:40:48.385Z,2.72
2023-05-24T07:43:15.670Z,2.80
2023-05-24T07:45:42.767Z,2.08
2023-05-24T07:48:09.936Z,2.63
2023-05-24T07:50:37.379Z,2.33
2023-05-24T07:53:05.455Z,2.97
2023-05-24T07:55:32.393Z,2.70
2023-05-24T07:57:59.304Z,2.40
2023-05-24T08:00:26.974Z,2.50
2023-05-24T08:02:54.055Z,3.13
2023-05-24T08:05:21.106Z,2.33
2023-05-24T08:07:48.214Z,3.20
2023-05-24T08:10:15.152Z,3.42
2023-05-24T08:12:42.972Z,2.30
2023-05-24T08:15:10.301Z,2.17
2023-05-24T08:17:40.712Z,2.60
2023-05-24T08:20:14.338Z,2.92
2023-05-24T08:22:42.510Z,2.78
2023-05-24T08:25:10.947Z,2.55
2023-05-24T08:27:37.922Z,2.72
2023-05-24T08:30:05.632Z,2.92
2023-05-24T08:32:32.576Z,2.95
2023-05-24T08:35:14.932Z,2.50
2023-05-24T08:37:46.285Z,2.47
2023-05-24T08:40:13.629Z,2.78
2023-05-24T08:42:41.787Z,2.65
2023-05-24T08:45:12.042Z,2.67
2023-05-24T08:47:39.711Z,2.33
2023-05-24T08:50:10.293Z,2.33
2023-05-24T08:52:38.432Z,2.63
2023-05-24T08:55:05.868Z,3.42
2023-05-24T08:57:34.873Z,2.88
2023-05-24T09:00:02.265Z,2.95
2023-05-24T09:02:31.573Z,2.60
2023-05-24T09:04:59.819Z,4.15
2023-05-24T09:07:27.727Z,3.90
2023-05-24T09:10:01.155Z,3.75
2023-05-24T09:12:37.466Z,4.50
2023-05-24T09:15:06.912Z,4.15
2023-05-24T09:17:36.422Z,4.57
2023-05-24T09:20:07.095Z,4.88
2023-05-24T09:22:40.300Z,4.53
2023-05-24T09:25:09.739Z,4.40
2023-05-24T09:27:37.694Z,4.32
2023-05-24T09:30:10.329Z,4.68
2023-05-24T09:32:38.132Z,4.55
2023-05-24T09:35:09.581Z,4.65
2023-05-24T09:37:38.816Z,4.03
2023-05-24T09:40:07.261Z,4.18
2023-05-24T09:42:34.423Z,4.07
2023-05-24T09:45:05.081Z,4.05
2023-05-24T09:47:33.606Z,4.05
2023-05-24T09:50:02.265Z,4.15
2023-05-24T09:52:29.334Z,4.45
2023-05-24T09:54:56.268Z,3.95
2023-05-24T09:57:23.138Z,3.90
2023-05-24T09:59:50.755Z,3.90
2023-05-24T10:02:20.739Z,3.70
2023-05-24T10:04:48.184Z,4.57
2023-05-24T10:07:16.487Z,3.10
2023-05-24T10:09:45.914Z,3.50
2023-05-24T10:12:12.807Z,3.15
2023-05-24T10:14:39.851Z,3.30
2023-05-24T10:17:07.878Z,3.15
2023-05-24T10:19:36.683Z,2.88
2023-05-24T10:22:08.538Z,3.10
2023-05-24T10:24:47.786Z,3.30
2023-05-24T10:27:18.470Z,2.50
2023-05-24T10:30:08.575Z,2.88
2023-05-24T10:32:39.308Z,2.47
2023-05-24T10:35:08.101Z,2.83
2023-05-24T10:37:35.978Z,2.53
2023-05-24T10:40:03.783Z,2.50
2023-05-24T10:42:33.910Z,2.50
2023-05-24T10:45:16.174Z,2.60
2023-05-24T10:47:43.256Z,2.45
2023-05-24T10:50:21.178Z,2.30
2023-05-24T10:52:51.410Z,2.30
2023-05-24T10:55:21.318Z,2.58
2023-05-24T10:57:48.233Z,2.72
2023-05-24T11:00:34.800Z,2.20
2023-05-24T11:03:10.944Z,2.63
2023-05-24T11:05:48.019Z,2.03
2023-05-24T11:08:15.337Z,2.30
2023-05-24T11:10:45.071Z,2.28
2023-05-24T11:13:12.200Z,2.10
2023-05-24T11:15:39.925Z,2.38
2023-05-24T11:18:09.909Z,2.05
2023-05-24T11:20:37.267Z,2.10
2023-05-24T11:23:05.411Z,2.30
2023-05-24T11:25:33.928Z,2.50
2023-05-24T11:28:02.124Z,2.45
2023-05-24T11:30:29.205Z,2.28
2023-05-24T11:32:57.309Z,2.38
2023-05-24T11:35:27.868Z,2.20
2023-05-24T11:37:54.981Z,2.33
2023-05-24T11:40:22.043Z,2.25
2023-05-24T11:42:49.906Z,1.80
2023-05-24T11:45:19.111Z,2.20
2023-05-24T11:47:46.316Z,2.50
2023-05-24T11:50:16.945Z,2.78
2023-05-24T11:52:44.217Z,2.03
2023-05-24T11:55:16.409Z,2.28
2023-05-24T11:57:50.718Z,2.10
2023-05-24T12:00:25.149Z,2.40
2023-05-24T12:02:54.712Z,2.50
2023-05-24T12:05:24.048Z,2.08
2023-05-24T12:08:06.082Z,2.95
2023-05-24T12:10:37.650Z,2.60
2023-05-24T12:13:05.252Z,2.45
2023-05-24T12:15:32.473Z,2.70
2023-05-24T12:18:00.331Z,2.33
2023-05-24T12:20:30.457Z,2.67
2023-05-24T12:22:57.432Z,2.50
2023-05-24T12:25:27.109Z,2.08
2023-05-24T12:27:56.298Z,2.00
2023-05-24T12:30:28.149Z,2.38
2023-05-24T12:32:55.756Z,2.08
2023-05-24T12:35:23.648Z,2.75
2023-05-24T12:37:50.645Z,2.75
2023-05-24T12:40:23.532Z,2.65
2023-05-24T12:42:51.833Z,2.63
2023-05-24T12:45:26.017Z,2.40
2023-05-24T12:47:57.642Z,2.35
2023-05-24T12:50:26.895Z,2.28
2023-05-24T12:52:54.091Z,2.28
2023-05-24T12:55:23.869Z,2.40
2023-05-24T12:57:54.161Z,2.75
2023-05-24T13:00:28.911Z,2.30
2023-05-24T13:02:58.892Z,2.15
2023-05-24T13:05:27.930Z,2.50
2023-05-24T13:07:59.294Z,1.90
2023-05-24T13:10:27.670Z,2.58
2023-05-24T13:12:54.638Z,2.42
2023-05-24T13:15:23.365Z,2.22
2023-05-24T13:17:50.697Z,2.40
2023-05-24T13:20:22.030Z,2.22
2023-05-24T13:22:49.605Z,2.90
2023-05-24T13:25:16.754Z,2.20
2023-05-24T13:27:43.699Z,2.30
2023-05-24T13:30:12.603Z,2.22
2023-05-24T13:32:41.199Z,2.40
2023-05-24T13:35:08.801Z,2.25
2023-05-24T13:37:35.853Z,2.25
2023-05-24T13:40:03.275Z,2.28
2023-05-24T13:42:30.299Z,2.03
2023-05-24T13:44:59.231Z,2.13
2023-05-24T13:47:38.677Z,2.00
2023-05-24T13:50:07.674Z,1.73
2023-05-24T13:52:34.965Z,1.98
2023-05-24T13:55:04.921Z,1.83
2023-05-24T13:57:49.791Z,1.90
2023-05-24T14:00:19.065Z,1.70
2023-05-24T14:02:46.110Z,1.95
2023-05-24T14:05:26.614Z,1.80
2023-05-24T14:07:54.257Z,2.05
2023-05-24T14:10:21.995Z,1.98
2023-05-24T14:13:03.493Z,2.17
2023-05-24T14:15:36.461Z,2.03
2023-05-24T14:18:08.009Z,2.00
2023-05-24T14:20:38.648Z,2.20
2023-05-24T14:23:07.250Z,2.15
2023-05-24T14:25:34.350Z,1.95
2023-05-24T14:28:01.552Z,2.33
2023-05-24T14:30:28.522Z,2.30
2023-05-24T14:32:55.730Z,2.05
2023-05-24T14:35:22.738Z,2.40
2023-05-24T14:37:49.738Z,2.00
2023-05-24T14:40:19.111Z,2.00
2023-05-24T14:42:47.007Z,2.30
2023-05-24T14:45:14.053Z,2.00
2023-05-24T14:47:41.051Z,1.90
2023-05-24T14:50:08.506Z,2.10
2023-05-24T14:52:35.531Z,2.47
2023-05-24T14:55:02.874Z,2.58
2023-05-24T14:57:29.829Z,2.20
2023-05-24T14:59:56.736Z,2.20
2023-05-24T15:02:23.716Z,2.30
2023-05-24T15:04:50.614Z,2.20
2023-05-24T15:07:17.822Z,2.88
2023-05-24T15:09:44.716Z,2.70
2023-05-24T15:12:11.662Z,2.55
2023-05-24T15:14:38.819Z,2.90
2023-05-24T15:17:05.900Z,2.20
2023-05-24T15:19:32.830Z,2.40
2023-05-24T15:22:00.005Z,3.15
2023-05-24T15:24:26.937Z,2.90
2023-05-24T15:26:53.855Z,2.65
2023-05-24T15:29:21.520Z,2.30
2023-05-24T15:31:48.452Z,2.33
2023-05-24T15:34:15.541Z,3.00
2023-05-24T15:36:42.682Z,2.38
2023-05-24T15:39:09.595Z,2.50
2023-05-24T15:41:37.875Z,2.80
2023-05-24T15:44:08.850Z,3.00
2023-05-24T15:46:39.259Z,2.83
2023-05-24T15:49:06.226Z,2.42
2023-05-24T15:52:02.847Z,2.55
2023-05-24T15:54:20.094Z,2.47
2023-05-24T15:56:47.021Z,2.40
2023-05-24T15:59:13.974Z,3.20
2023-05-24T16:01:41.701Z,2.80
2023-05-24T16:04:08.696Z,3.03
2023-05-24T16:06:36.727Z,2.83
2023-05-24T16:09:05.339Z,3.28
2023-05-24T16:11:32.344Z,2.70
2023-05-24T16:13:59.314Z,2.50
2023-05-24T16:16:26.394Z,2.92
2023-05-24T16:18:53.458Z,2.90
2023-05-24T16:21:20.436Z,3.05
2023-05-24T16:23:47.498Z,3.20
2023-05-24T16:26:14.435Z,2.70
2023-05-24T16:28:41.355Z,2.78
2023-05-24T16:31:08.286Z,2.75
2023-05-24T16:33:35.192Z,2.70
2023-05-24T16:36:04.500Z,2.83
2023-05-24T16:38:31.517Z,2.58
2023-05-24T16:40:58.458Z,2.65
2023-05-24T16:43:26.031Z,2.80
2023-05-24T16:45:53.133Z,2.90
2023-05-24T16:48:21.793Z,2.80
2023-05-24T16:50:50.431Z,2.90
2023-05-24T16:53:17.565Z,2.60
2023-05-24T16:55:44.596Z,2.60
2023-05-24T16:58:11.568Z,2.17
2023-05-24T17:00:38.451Z,2.80
2023-05-24T17:03:05.439Z,2.45
2023-05-24T17:05:32.408Z,3.00
2023-05-24T17:07:59.349Z,2.67
2023-05-24T17:10:26.269Z,3.65
2023-05-24T17:12:53.412Z,3.03
2023-05-24T17:15:20.546Z,3.33
2023-05-24T17:17:47.640Z,2.90
2023-05-24T17:20:14.894Z,2.92
2023-05-24T17:22:41.906Z,2.97
2023-05-24T17:25:09.027Z,2.90
2023-05-24T17:27:36.383Z,3.15
2023-05-24T17:30:03.428Z,3.70
2023-05-24T17:32:30.328Z,3.22
2023-05-24T17:34:57.675Z,3.13
2023-05-24T17:37:24.578Z,3.03
2023-05-24T17:39:52.651Z,2.55
2023-05-24T17:42:19.699Z,2.50
2023-05-24T17:44:47.525Z,2.45
2023-05-24T17:47:14.632Z,2.50
2023-05-24T17:49:41.922Z,3.15
2023-05-24T17:52:08.863Z,2.70
2023-05-24T17:54:35.815Z,2.83
2023-05-24T17:57:03.079Z,2.45
2023-05-24T17:59:30.032Z,2.58
2023-05-24T18:01:56.941Z,2.80
2023-05-24T18:04:23.971Z,2.72
2023-05-24T18:06:51.921Z,2.97
2023-05-24T18:09:18.831Z,2.85
2023-05-24T18:11:48.947Z,2.55
2023-05-24T18:14:15.877Z,2.70
2023-05-24T18:16:43.088Z,2.92
2023-05-24T18:19:10.089Z,3.10
2023-05-24T18:21:38.053Z,3.05
2023-05-24T18:24:05.106Z,2.65
2023-05-24T18:26:32.144Z,2.72
2023-05-24T18:28:59.060Z,2.80
2023-05-24T18:31:26.050Z,2.70
2023-05-24T18:33:53.040Z,3.03
2023-05-24T18:36:20.511Z,2.25
2023-05-24T18:38:47.522Z,2.88
2023-05-24T18:41:15.289Z,2.88
2023-05-24T18:43:43.190Z,2.60
2023-05-24T18:46:14.914Z,2.85
2023-05-24T18:48:42.578Z,3.10
2023-05-24T18:51:09.755Z,2.65
2023-05-24T18:53:36.746Z,3.42
2023-05-24T18:56:03.872Z,3.15
2023-05-24T18:58:31.213Z,2.50
2023-05-24T19:00:58.228Z,3.30
2023-05-24T19:03:25.343Z,2.58
2023-05-24T19:05:52.450Z,2.50
2023-05-24T19:08:19.467Z,3.08
2023-05-24T19:10:46.426Z,2.78
2023-05-24T19:13:15.135Z,2.58
2023-05-24T19:15:42.379Z,2.40
2023-05-24T19:18:09.557Z,2.63
2023-05-24T19:20:36.768Z,3.15
2023-05-24T19:23:04.031Z,2.55
2023-05-24T19:25:31.496Z,2.90
2023-05-24T19:28:00.449Z,2.80
2023-05-24T19:30:27.901Z,3.17
2023-05-24T19:32:54.957Z,2.40
2023-05-24T19:35:22.014Z,3.25
2023-05-24T19:37:48.963Z,2.90
2023-05-24T19:40:16.283Z,2.70
2023-05-24T19:42:43.172Z,2.30
2023-05-24T19:45:10.565Z,2.90
2023-05-24T19:47:37.569Z,2.65
2023-05-24T19:50:04.827Z,2.78
2023-05-24T19:52:31.788Z,2.78
2023-05-24T19:54:58.780Z,2.75
2023-05-24T19:57:26.497Z,2.97
2023-05-24T19:59:53.461Z,3.30
2023-05-24T20:02:20.424Z,3.60
2023-05-24T20:04:47.366Z,3.13
2023-05-24T20:07:14.809Z,3.17
2023-05-24T20:09:41.949Z,3.17
2023-05-24T20:12:08.982Z,3.38
2023-05-24T20:14:36.018Z,2.80
2023-05-24T20:17:04.230Z,3.28
2023-05-24T20:19:31.112Z,2.92
2023-05-24T20:21:58.335Z,3.38
2023-05-24T20:24:25.221Z,3.00
2023-05-24T20:26:52.119Z,3.30
2023-05-24T20:29:19.022Z,2.85
2023-05-24T20:31:47.163Z,3.05
2023-05-24T20:34:14.159Z,3.47
2023-05-24T20:36:43.499Z,3.22
2023-05-24T20:39:10.835Z,2.97
2023-05-24T20:41:37.729Z,3.10
2023-05-24T20:44:04.659Z,3.05
2023-05-24T20:46:31.789Z,3.20
2023-05-24T20:48:58.796Z,3.08
2023-05-24T20:51:25.770Z,3.30
2023-05-24T20:53:53.401Z,3.30
2023-05-24T20:56:23.049Z,2.70
2023-05-24T20:58:53.029Z,3.45
2023-05-24T21:01:21.050Z,3.60
2023-05-24T21:03:48.091Z,3.85
2023-05-24T21:06:15.200Z,4.15
2023-05-24T21:08:43.114Z,3.50
2023-05-24T21:11:10.010Z,3.72
2023-05-24T21:13:36.994Z,3.72
2023-05-24T21:16:04.181Z,4.10
2023-05-24T21:18:31.660Z,3.90
2023-05-24T21:20:58.581Z,4.13
2023-05-24T21:23:25.587Z,3.95
2023-05-24T21:25:52.501Z,3.90
2023-05-24T21:28:19.361Z,3.83
2023-05-24T21:30:46.317Z,4.50
2023-05-24T21:33:13.285Z,3.45
2023-05-24T21:35:40.359Z,3.88
2023-05-24T21:38:07.338Z,3.92
2023-05-24T21:40:34.303Z,3.53
2023-05-24T21:43:01.169Z,3.97
2023-05-24T21:45:28.246Z,4.05
2023-05-24T21:47:55.213Z,4.25
2023-05-24T21:50:22.321Z,3.58
2023-05-24T21:52:49.287Z,3.92
2023-05-24T21:55:16.215Z,4.05
2023-05-24T21:57:43.141Z,3.65
2023-05-24T22:00:11.974Z,4.10
2023-05-24T22:02:38.999Z,4.28
2023-05-24T22:05:06.336Z,3.70
2023-05-24T22:07:33.312Z,4.10
2023-05-24T22:10:00.253Z,4.22
2023-05-24T22:12:27.169Z,3.83
2023-05-24T22:14:54.110Z,4.30
2023-05-24T22:17:22.150Z,4.20
2023-05-24T22:19:49.484Z,4.28
2023-05-24T22:22:19.712Z,4.25
2023-05-24T22:24:47.333Z,4.38
2023-05-24T22:27:14.274Z,4.53
2023-05-24T22:29:41.310Z,4.43
2023-05-24T22:32:08.335Z,4.55
2023-05-24T22:34:35.540Z,4.88
2023-05-24T22:37:02.456Z,4.57
2023-05-24T22:39:29.388Z,4.63
2023-05-24T22:41:56.336Z,5.05
2023-05-24T22:44:23.392Z,4.55
2023-05-24T22:46:53.773Z,4.90
2023-05-24T22:49:21.274Z,4.55
2023-05-24T22:51:50.506Z,4.53
2023-05-24T22:54:17.950Z,4.30
2023-05-24T22:56:46.306Z,4.55
2023-05-24T22:59:13.262Z,4.53
2023-05-24T23:01:40.257Z,4.65
2023-05-24T23:06:39.100Z,4.03
2023-05-24T23:09:06.040Z,4.00
2023-05-24T23:11:33.029Z,3.90
2023-05-24T23:14:00.266Z,4.28
2023-05-24T23:16:28.955Z,3.70
2023-05-24T23:18:57.435Z,3.80
2023-05-24T23:21:24.912Z,3.83
2023-05-24T23:23:52.841Z,4.15
2023-05-24T23:26:19.906Z,4.00
2023-05-24T23:28:46.824Z,4.15
2023-05-24T23:31:14.026Z,4.03
2023-05-24T23:33:40.939Z,4.45
2023-05-24T23:36:09.930Z,3.72
2023-05-24T23:38:37.286Z,3.55
2023-05-24T23:41:04.156Z,4.03
2023-05-24T23:43:31.251Z,3.45
2023-05-24T23:45:58.171Z,3.55
2023-05-24T23:48:25.051Z,4.20
2023-05-24T23:50:54.541Z,3.75
2023-05-24T23:53:21.864Z,3.97
2023-05-24T23:55:48.828Z,3.50
2023-05-24T23:58:15.940Z,4.28
